createdAt,value
2018-11-04T00:01:12.659Z,4.86
2018-11-04T00:03:40.628Z,4.71
2018-11-04T00:06:08.612Z,4.63
2018-11-04T00:08:36.539Z,4.71
2018-11-04T00:11:04.757Z,4.71
2018-11-04T00:13:32.653Z,4.74
2018-11-04T00:16:00.597Z,4.74
2018-11-04T00:18:28.461Z,4.71
2018-11-04T00:20:56.339Z,4.69
2018-11-04T00:23:24.247Z,4.70
2018-11-04T00:25:52.182Z,4.67
2018-11-04T00:28:20.095Z,4.69
2018-11-04T00:30:48.025Z,4.69
2018-11-04T00:33:15.884Z,4.62
2018-11-04T00:35:43.812Z,4.61
2018-11-04T00:38:11.726Z,4.65
2018-11-04T00:40:39.681Z,4.60
2018-11-04T00:43:07.544Z,4.61
2018-11-04T00:45:35.535Z,4.52
2018-11-04T00:48:03.453Z,4.53
2018-11-04T00:50:31.408Z,4.55
2018-11-04T00:52:59.348Z,4.54
2018-11-04T00:55:27.301Z,4.50
2018-11-04T00:57:55.229Z,4.47
2018-11-04T01:00:23.429Z,4.49
2018-11-04T01:02:51.372Z,4.47
2018-11-04T01:05:19.394Z,4.44
2018-11-04T01:07:47.352Z,4.33
2018-11-04T01:10:15.310Z,4.25
2018-11-04T01:12:43.943Z,4.26
2018-11-04T01:15:12.926Z,4.20
2018-11-04T01:17:41.507Z,4.22
2018-11-04T01:20:11.631Z,4.17
2018-11-04T01:22:39.545Z,4.10
2018-11-04T01:25:07.436Z,4.14
2018-11-04T01:27:35.409Z,4.03
2018-11-04T01:30:03.379Z,4.05
2018-11-04T01:32:31.304Z,4.11
2018-11-04T01:34:59.237Z,4.11
2018-11-04T01:37:27.139Z,4.14
2018-11-04T01:39:55.057Z,4.12
2018-11-04T01:42:22.993Z,4.11
2018-11-04T01:44:50.972Z,4.03
2018-11-04T01:47:18.833Z,4.01
2018-11-04T01:49:46.756Z,4.01
2018-11-04T01:52:14.690Z,4.00
2018-11-04T01:54:42.680Z,3.98
2018-11-04T01:57:10.540Z,3.95
2018-11-04T01:59:38.465Z,3.86
2018-11-04T02:02:06.377Z,3.86
2018-11-04T02:04:34.368Z,3.86
2018-11-04T02:07:02.289Z,3.87
2018-11-04T02:09:30.215Z,3.84
2018-11-04T02:11:58.157Z,3.78
2018-11-04T02:14:26.127Z,3.78
2018-11-04T02:16:54.095Z,3.78
2018-11-04T02:19:22.009Z,3.74
2018-11-04T02:21:49.942Z,3.72
2018-11-04T02:24:17.884Z,3.70
2018-11-04T02:26:45.748Z,3.68
2018-11-04T02:29:13.636Z,3.69
2018-11-04T02:31:41.552Z,3.71
2018-11-04T02:34:09.519Z,3.66
2018-11-04T02:36:37.417Z,3.61
2018-11-04T02:39:06.503Z,3.63
2018-11-04T02:41:34.419Z,3.62
2018-11-04T02:44:03.045Z,3.60
2018-11-04T02:46:31.085Z,3.64
2018-11-04T02:48:59.095Z,3.65
2018-11-04T02:51:27.028Z,3.63
2018-11-04T02:53:54.951Z,3.63
2018-11-04T02:56:22.909Z,3.57
2018-11-04T02:58:50.866Z,3.56
2018-11-04T03:01:18.845Z,3.54
2018-11-04T03:03:46.800Z,3.44
2018-11-04T03:06:14.774Z,3.47
2018-11-04T03:08:42.708Z,3.51
2018-11-04T03:11:10.656Z,3.52
2018-11-04T03:13:38.612Z,3.50
2018-11-04T03:16:06.572Z,3.51
2018-11-04T03:18:34.541Z,3.49
2018-11-04T03:21:02.450Z,3.50
2018-11-04T03:23:30.441Z,3.49
2018-11-04T03:25:58.434Z,3.47
2018-11-04T03:28:26.355Z,3.46
2018-11-04T03:30:54.265Z,3.43
2018-11-04T03:33:22.222Z,3.41
2018-11-04T03:35:50.134Z,3.39
2018-11-04T03:38:18.048Z,3.30
2018-11-04T03:40:45.968Z,3.22
2018-11-04T03:43:13.950Z,3.26
2018-11-04T03:45:41.869Z,3.24
2018-11-04T03:48:09.870Z,3.21
2018-11-04T03:50:37.749Z,3.18
2018-11-04T03:53:06.690Z,3.11
2018-11-04T03:55:35.593Z,3.13
2018-11-04T03:58:03.948Z,3.08
2018-11-04T04:00:31.901Z,3.07
2018-11-04T04:02:59.783Z,3.07
2018-11-04T04:05:27.704Z,3.06
2018-11-04T04:07:55.707Z,3.04
2018-11-04T04:10:23.587Z,3.04
2018-11-04T04:12:51.474Z,3.02
2018-11-04T04:15:19.422Z,2.92
2018-11-04T04:17:47.403Z,2.92
2018-11-04T04:20:15.370Z,2.94
2018-11-04T04:22:43.315Z,2.94
2018-11-04T04:25:11.272Z,2.88
2018-11-04T04:27:39.198Z,2.90
2018-11-04T04:30:08.971Z,2.89
2018-11-04T04:32:36.953Z,2.90
2018-11-04T04:35:05.725Z,2.93
2018-11-04T04:37:33.708Z,2.87
2018-11-04T04:40:02.289Z,2.84
2018-11-04T04:42:30.268Z,2.84
2018-11-04T04:44:58.329Z,2.82
2018-11-04T04:47:26.311Z,2.78
2018-11-04T04:49:54.414Z,2.79
2018-11-04T04:52:22.374Z,2.76
2018-11-04T04:54:50.303Z,2.70
2018-11-04T04:57:18.208Z,2.73
2018-11-04T04:59:46.174Z,2.75
2018-11-04T05:02:14.205Z,2.72
2018-11-04T05:04:42.129Z,2.70
2018-11-04T05:07:10.619Z,2.69
2018-11-04T05:09:40.804Z,2.73
2018-11-04T05:12:08.735Z,2.74
2018-11-04T05:14:36.714Z,2.64
2018-11-04T05:17:05.024Z,2.72
2018-11-04T05:19:32.987Z,2.77
2018-11-04T05:22:01.521Z,2.80
2018-11-04T05:24:29.500Z,2.82
2018-11-04T05:26:57.509Z,2.78
2018-11-04T05:29:25.498Z,2.82
2018-11-04T05:31:53.465Z,2.77
2018-11-04T05:34:21.438Z,2.78
2018-11-04T05:36:49.425Z,2.85
2018-11-04T05:39:17.394Z,2.83
2018-11-04T05:41:45.382Z,2.74
2018-11-04T05:44:13.305Z,2.74
2018-11-04T05:46:41.294Z,2.56
2018-11-04T05:49:09.297Z,2.54
2018-11-04T05:51:37.229Z,2.70
2018-11-04T05:54:05.509Z,2.70
2018-11-04T05:56:33.451Z,2.66
2018-11-04T05:59:01.376Z,2.68
2018-11-04T06:01:29.336Z,2.59
2018-11-04T06:03:57.247Z,2.64
2018-11-04T06:06:25.133Z,2.65
2018-11-04T06:08:53.059Z,2.58
2018-11-04T06:11:21.033Z,2.52
2018-11-04T06:13:48.935Z,2.46
2018-11-04T06:16:16.840Z,2.49
2018-11-04T06:18:44.777Z,2.53
2018-11-04T06:21:12.729Z,2.57
2018-11-04T06:23:40.610Z,2.59
2018-11-04T06:26:08.731Z,2.55
2018-11-04T06:28:36.746Z,2.59
2018-11-04T06:31:04.817Z,2.61
2018-11-04T06:33:33.366Z,2.57
2018-11-04T06:36:01.578Z,2.56
2018-11-04T06:38:29.515Z,2.59
2018-11-04T06:40:57.500Z,2.60
2018-11-04T06:43:25.526Z,2.63
2018-11-04T06:45:53.454Z,2.60
2018-11-04T06:48:21.542Z,2.62
2018-11-04T06:50:49.523Z,2.60
2018-11-04T06:53:17.601Z,2.63
2018-11-04T06:55:45.637Z,2.65
2018-11-04T06:58:13.626Z,2.65
2018-11-04T07:00:41.594Z,2.63
2018-11-04T07:03:09.659Z,2.55
2018-11-04T07:05:37.780Z,2.55
2018-11-04T07:08:05.833Z,2.60
2018-11-04T07:10:33.783Z,2.64
2018-11-04T07:13:02.145Z,2.67
2018-11-04T07:15:30.051Z,2.71
2018-11-04T07:17:58.028Z,2.75
2018-11-04T07:20:25.972Z,2.82
2018-11-04T07:22:53.967Z,2.88
2018-11-04T07:25:21.947Z,2.91
2018-11-04T07:27:49.950Z,2.86
2018-11-04T07:30:17.877Z,2.92
2018-11-04T07:32:46.080Z,2.92
2018-11-04T07:35:14.005Z,2.92
2018-11-04T07:37:42.021Z,2.91
2018-11-04T07:40:10.164Z,2.87
2018-11-04T07:42:38.655Z,2.98
2018-11-04T07:45:07.178Z,3.02
2018-11-04T07:47:35.212Z,3.06
2018-11-04T07:50:03.359Z,3.07
2018-11-04T07:52:31.315Z,3.11
2018-11-04T07:54:59.333Z,3.21
2018-11-04T07:57:27.309Z,3.34
2018-11-04T07:59:55.295Z,3.45
2018-11-04T08:02:23.289Z,3.35
2018-11-04T08:04:51.555Z,3.45
2018-11-04T08:07:19.519Z,3.52
2018-11-04T08:09:47.679Z,3.60
2018-11-04T08:12:15.914Z,3.69
2018-11-04T08:14:43.944Z,3.75
2018-11-04T08:17:12.078Z,3.88
2018-11-04T08:19:40.032Z,3.88
2018-11-04T08:22:08.149Z,3.87
2018-11-04T08:24:36.140Z,3.94
2018-11-04T08:27:04.126Z,3.99
2018-11-04T08:29:32.117Z,4.08
2018-11-04T08:32:00.904Z,4.22
2018-11-04T08:34:28.935Z,4.31
2018-11-04T08:36:57.030Z,4.67
2018-11-04T08:39:25.111Z,4.81
2018-11-04T08:41:53.106Z,4.70
2018-11-04T08:44:21.068Z,4.61
2018-11-04T08:46:49.138Z,4.77
2018-11-04T08:49:17.195Z,4.73
2018-11-04T08:51:45.207Z,4.78
2018-11-04T08:54:13.218Z,4.73
2018-11-04T08:56:41.295Z,4.93
2018-11-04T08:59:09.292Z,5.20
2018-11-04T09:01:37.317Z,5.34
2018-11-04T09:04:05.321Z,5.38
2018-11-04T09:06:33.439Z,5.51
2018-11-04T09:09:01.464Z,5.74
2018-11-04T09:11:29.539Z,5.84
2018-11-04T09:13:57.526Z,5.98
2018-11-04T09:16:25.521Z,6.07
2018-11-04T09:18:53.511Z,6.21
2018-11-04T09:21:21.941Z,6.33
2018-11-04T09:23:50.160Z,6.38
2018-11-04T09:26:18.334Z,6.55
2018-11-04T09:28:46.415Z,6.63
2018-11-04T09:31:14.438Z,6.78
2018-11-04T09:33:42.435Z,6.91
2018-11-04T09:36:10.593Z,7.01
2018-11-04T09:38:38.469Z,7.03
2018-11-04T09:41:06.424Z,7.11
2018-11-04T09:43:34.505Z,7.14
2018-11-04T09:46:02.640Z,7.26
2018-11-04T09:48:30.636Z,7.31
2018-11-04T09:50:58.768Z,7.42
2018-11-04T09:53:26.801Z,7.42
2018-11-04T09:55:54.897Z,7.52
2018-11-04T09:58:22.920Z,7.47
2018-11-04T10:00:50.914Z,7.66
2018-11-04T10:03:18.842Z,7.81
2018-11-04T10:05:46.813Z,7.87
2018-11-04T10:08:14.851Z,7.99
2018-11-04T10:10:42.819Z,7.97
2018-11-04T10:13:10.901Z,8.07
2018-11-04T10:15:39.046Z,8.27
2018-11-04T10:18:07.016Z,8.37
2018-11-04T10:20:35.380Z,8.48
2018-11-04T10:23:03.561Z,8.56
2018-11-04T10:25:31.555Z,8.59
2018-11-04T10:27:59.497Z,8.73
2018-11-04T10:30:27.576Z,8.82
2018-11-04T10:32:55.545Z,8.95
2018-11-04T10:35:23.572Z,9.02
2018-11-04T10:37:51.627Z,8.98
2018-11-04T10:40:19.612Z,9.27
2018-11-04T10:42:47.580Z,9.26
2018-11-04T10:45:15.574Z,9.36
2018-11-04T10:47:43.590Z,9.39
2018-11-04T10:50:12.559Z,9.44
2018-11-04T10:52:40.589Z,9.55
2018-11-04T10:55:09.831Z,9.56
2018-11-04T10:57:37.923Z,9.67
2018-11-04T11:00:15.867Z,9.80
2018-11-04T11:02:44.504Z,9.95
2018-11-04T11:05:12.546Z,10.05
2018-11-04T11:07:40.629Z,10.20
2018-11-04T11:10:09.655Z,10.19
2018-11-04T11:12:37.676Z,10.36
2018-11-04T11:15:06.487Z,10.50
2018-11-04T11:17:34.492Z,10.57
2018-11-04T11:20:02.554Z,10.65
2018-11-04T11:22:30.571Z,10.72
2018-11-04T11:24:58.512Z,10.70
2018-11-04T11:27:28.417Z,10.81
2018-11-04T11:29:56.477Z,10.90
2018-11-04T11:32:24.423Z,10.93
2018-11-04T11:34:52.395Z,10.99
2018-11-04T11:37:20.396Z,11.22
2018-11-04T11:39:48.358Z,11.20
2018-11-04T11:42:16.307Z,11.32
2018-11-04T11:44:44.383Z,11.31
2018-11-04T11:47:12.321Z,11.30
2018-11-04T11:49:40.309Z,11.32
2018-11-04T11:52:08.438Z,11.53
2018-11-04T11:54:36.485Z,11.59
2018-11-04T11:57:04.533Z,11.55
2018-11-04T11:59:32.540Z,11.55
2018-11-04T12:02:00.635Z,11.58
2018-11-04T12:04:28.666Z,11.57
2018-11-04T12:06:57.534Z,11.44
2018-11-04T12:09:25.512Z,11.45
2018-11-04T12:11:53.700Z,11.32
2018-11-04T12:14:21.707Z,11.42
2018-11-04T12:16:49.781Z,11.40
2018-11-04T12:19:17.779Z,11.61
2018-11-04T12:21:45.771Z,11.64
2018-11-04T12:24:13.974Z,11.44
2018-11-04T12:26:41.936Z,11.53
2018-11-04T12:29:09.921Z,11.56
2018-11-04T12:31:38.195Z,11.48
2018-11-04T12:34:06.157Z,11.58
2018-11-04T12:36:34.101Z,11.59
2018-11-04T12:39:02.048Z,11.60
2018-11-04T12:41:30.279Z,11.66
2018-11-04T12:43:58.314Z,11.72
2018-11-04T12:46:26.384Z,11.77
2018-11-04T12:48:54.456Z,11.80
2018-11-04T12:51:22.469Z,11.60
2018-11-04T12:53:50.923Z,11.75
2018-11-04T12:56:19.545Z,11.74
2018-11-04T12:58:47.864Z,11.75
2018-11-04T13:01:15.935Z,11.64
2018-11-04T13:03:43.887Z,11.80
2018-11-04T13:06:13.998Z,11.77
2018-11-04T13:08:42.553Z,11.68
2018-11-04T13:11:11.013Z,11.67
2018-11-04T13:13:40.224Z,11.74
2018-11-04T13:16:09.492Z,11.59
2018-11-04T13:18:37.648Z,11.64
2018-11-04T13:21:05.828Z,11.68
2018-11-04T13:23:33.791Z,11.70
2018-11-04T13:26:01.925Z,11.58
2018-11-04T13:28:30.800Z,11.63
2018-11-04T13:30:58.792Z,11.66
2018-11-04T13:33:26.965Z,11.69
2018-11-04T13:35:55.085Z,11.72
2018-11-04T13:38:23.595Z,11.58
2018-11-04T13:40:52.045Z,11.62
2018-11-04T13:43:20.554Z,11.62
2018-11-04T13:45:48.513Z,11.62
2018-11-04T13:48:16.496Z,11.68
2018-11-04T13:50:44.541Z,11.62
2018-11-04T13:53:12.555Z,11.53
2018-11-04T13:55:40.717Z,11.58
2018-11-04T13:58:08.813Z,11.53
2018-11-04T14:00:36.877Z,11.48
2018-11-04T14:03:05.109Z,11.43
2018-11-04T14:05:33.106Z,11.55
2018-11-04T14:08:01.225Z,11.64
2018-11-04T14:10:29.189Z,11.56
2018-11-04T14:12:57.263Z,11.58
2018-11-04T14:15:25.173Z,11.64
2018-11-04T14:17:53.239Z,11.63
2018-11-04T14:20:21.287Z,11.59
2018-11-04T14:22:49.283Z,11.67
2018-11-04T14:25:17.332Z,11.63
2018-11-04T14:27:45.469Z,11.58
2018-11-04T14:30:14.544Z,11.56
2018-11-04T14:32:42.940Z,11.58
2018-11-04T14:35:11.522Z,11.61
2018-11-04T14:37:40.628Z,11.54
2018-11-04T14:40:10.431Z,11.52
2018-11-04T14:42:39.153Z,11.49
2018-11-04T14:45:07.492Z,11.51
2018-11-04T14:47:35.666Z,11.48
2018-11-04T14:50:04.486Z,11.45
2018-11-04T14:52:32.648Z,11.38
2018-11-04T14:55:00.853Z,11.45
2018-11-04T14:57:28.933Z,11.30
2018-11-04T14:59:57.318Z,11.28
2018-11-04T15:02:25.665Z,11.25
2018-11-04T15:04:53.981Z,11.19
2018-11-04T15:07:26.947Z,11.24
2018-11-04T15:09:56.399Z,11.19
2018-11-04T15:12:24.709Z,11.16
2018-11-04T15:14:52.814Z,11.15
2018-11-04T15:17:20.824Z,11.13
2018-11-04T15:19:48.828Z,11.10
2018-11-04T15:22:16.814Z,11.07
2018-11-04T15:24:44.860Z,11.00
2018-11-04T15:27:12.903Z,10.89
2018-11-04T15:29:40.946Z,10.85
2018-11-04T15:32:09.368Z,10.77
2018-11-04T15:34:37.574Z,10.79
2018-11-04T15:37:05.667Z,10.68
2018-11-04T15:39:33.589Z,10.68
2018-11-04T15:42:01.750Z,10.58
2018-11-04T15:44:29.796Z,10.46
2018-11-04T15:46:57.829Z,10.45
2018-11-04T15:49:25.864Z,10.42
2018-11-04T15:51:54.056Z,10.42
2018-11-04T15:54:23.070Z,10.42
2018-11-04T15:56:51.184Z,10.42
2018-11-04T15:59:19.233Z,10.31
2018-11-04T16:01:47.284Z,10.18
2018-11-04T16:04:15.605Z,10.21
2018-11-04T16:06:49.150Z,10.14
2018-11-04T16:09:17.230Z,10.02
2018-11-04T16:11:45.229Z,9.91
2018-11-04T16:14:13.199Z,9.90
2018-11-04T16:16:41.163Z,9.93
2018-11-04T16:19:09.629Z,9.84
2018-11-04T16:21:37.830Z,9.76
2018-11-04T16:24:05.942Z,9.68
2018-11-04T16:26:34.013Z,9.66
2018-11-04T16:29:02.003Z,9.57
2018-11-04T16:31:29.963Z,9.54
2018-11-04T16:33:57.953Z,9.51
2018-11-04T16:36:25.952Z,9.46
2018-11-04T16:38:54.071Z,9.39
2018-11-04T16:41:22.846Z,9.22
2018-11-04T16:43:57.501Z,9.12
2018-11-04T16:46:25.529Z,9.00
2018-11-04T16:48:56.677Z,9.02
2018-11-04T16:51:26.848Z,8.99
2018-11-04T16:53:54.902Z,8.79
2018-11-04T16:56:23.110Z,8.80
2018-11-04T16:58:51.424Z,8.81
2018-11-04T17:01:19.811Z,8.81
2018-11-04T17:03:53.250Z,8.66
2018-11-04T17:06:21.583Z,8.63
2018-11-04T17:08:49.694Z,8.68
2018-11-04T17:11:17.732Z,8.54
2018-11-04T17:13:45.738Z,8.53
2018-11-04T17:16:13.796Z,8.54
2018-11-04T17:18:41.913Z,8.35
2018-11-04T17:21:09.849Z,8.42
2018-11-04T17:23:37.792Z,8.31
2018-11-04T17:26:05.868Z,8.27
2018-11-04T17:28:33.840Z,8.10
2018-11-04T17:31:01.886Z,8.19
2018-11-04T17:33:29.907Z,8.23
2018-11-04T17:35:58.050Z,8.09
2018-11-04T17:38:25.977Z,8.08
2018-11-04T17:40:54.374Z,8.05
2018-11-04T17:43:22.558Z,8.08
2018-11-04T17:45:50.597Z,8.08
2018-11-04T17:48:18.616Z,8.10
2018-11-04T17:50:46.654Z,8.10
2018-11-04T17:53:20.078Z,7.97
2018-11-04T17:55:49.898Z,8.02
2018-11-04T17:58:34.252Z,7.88
2018-11-04T18:01:03.341Z,7.92
2018-11-04T18:03:32.328Z,7.86
2018-11-04T18:06:00.257Z,7.92
2018-11-04T18:08:29.284Z,7.97
2018-11-04T18:10:57.366Z,7.98
2018-11-04T18:13:25.369Z,7.71
2018-11-04T18:15:55.385Z,7.84
2018-11-04T18:18:26.575Z,7.82
2018-11-04T18:20:54.557Z,7.84
2018-11-04T18:23:22.870Z,7.85
2018-11-04T18:25:50.983Z,7.74
2018-11-04T18:28:19.103Z,7.70
2018-11-04T18:30:47.121Z,7.64
2018-11-04T18:33:15.057Z,7.66
2018-11-04T18:35:43.037Z,7.58
2018-11-04T18:38:10.970Z,7.62
2018-11-04T18:40:39.004Z,7.60
2018-11-04T18:43:06.995Z,7.52
2018-11-04T18:45:34.911Z,7.48
2018-11-04T18:48:02.855Z,7.51
2018-11-04T18:50:30.879Z,7.51
2018-11-04T18:52:58.728Z,7.55
2018-11-04T18:55:26.647Z,7.52
2018-11-04T18:57:54.533Z,7.45
2018-11-04T19:00:22.443Z,7.58
2018-11-04T19:02:50.412Z,7.48
2018-11-04T19:05:18.611Z,7.52
2018-11-04T19:07:47.323Z,7.69
2018-11-04T19:10:16.842Z,7.71
2018-11-04T19:12:44.794Z,7.70
2018-11-04T19:15:13.222Z,7.78
2018-11-04T19:17:41.159Z,7.76
2018-11-04T19:20:10.692Z,7.71
2018-11-04T19:22:39.126Z,7.71
2018-11-04T19:25:08.269Z,7.79
2018-11-04T19:27:36.362Z,7.86
2018-11-04T19:30:05.322Z,7.93
2018-11-04T19:32:33.361Z,7.88
2018-11-04T19:35:01.788Z,7.95
2018-11-04T19:37:29.775Z,7.95
2018-11-04T19:39:57.720Z,8.01
2018-11-04T19:42:25.703Z,8.06
2018-11-04T19:44:53.620Z,8.01
2018-11-04T19:47:21.507Z,8.01
2018-11-04T19:49:49.532Z,8.07
2018-11-04T19:52:17.452Z,8.01
2018-11-04T19:54:45.403Z,7.94
2018-11-04T19:57:13.384Z,7.98
2018-11-04T19:59:41.340Z,8.01
2018-11-04T20:02:09.285Z,7.97
2018-11-04T20:04:37.262Z,7.95
2018-11-04T20:07:05.473Z,7.96
2018-11-04T20:09:33.405Z,7.91
2018-11-04T20:12:02.091Z,7.87
2018-11-04T20:14:30.020Z,7.85
2018-11-04T20:16:58.034Z,7.89
2018-11-04T20:19:31.625Z,7.79
2018-11-04T20:21:59.557Z,7.87
2018-11-04T20:24:33.866Z,7.82
2018-11-04T20:27:01.841Z,7.89
2018-11-04T20:29:30.412Z,7.89
2018-11-04T20:32:03.876Z,7.88
2018-11-04T20:34:31.855Z,7.86
2018-11-04T20:36:59.934Z,7.80
2018-11-04T20:39:33.609Z,7.82
2018-11-04T20:42:05.199Z,7.76
2018-11-04T20:44:41.695Z,7.66
2018-11-04T20:47:10.621Z,7.69
2018-11-04T20:49:44.411Z,7.72
2018-11-04T20:52:12.436Z,7.72
2018-11-04T20:54:42.372Z,7.67
2018-11-04T20:57:19.656Z,7.65
2018-11-04T20:59:47.728Z,7.63
2018-11-04T21:02:15.972Z,7.57
2018-11-04T21:04:47.682Z,7.58
2018-11-04T21:07:15.802Z,7.57
2018-11-04T21:09:43.842Z,7.56
2018-11-04T21:12:11.889Z,7.57
2018-11-04T21:14:39.840Z,7.48
2018-11-04T21:17:07.961Z,7.47
2018-11-04T21:19:35.916Z,7.51
2018-11-04T21:22:04.069Z,7.49
2018-11-04T21:24:32.133Z,7.43
2018-11-04T21:27:00.149Z,7.43
2018-11-04T21:29:28.529Z,7.41
2018-11-04T21:31:56.142Z,7.41
2018-11-04T21:34:24.149Z,7.36
2018-11-04T21:36:52.189Z,7.32
2018-11-04T21:39:20.152Z,7.29
2018-11-04T21:41:48.140Z,7.25
2018-11-04T21:44:16.439Z,7.27
2018-11-04T21:46:44.077Z,7.21
2018-11-04T21:49:12.083Z,7.20
2018-11-04T21:51:40.084Z,7.16
2018-11-04T21:54:08.109Z,7.07
2018-11-04T21:56:36.222Z,7.05
2018-11-04T21:59:04.225Z,7.07
2018-11-04T22:01:32.200Z,6.98
2018-11-04T22:04:00.457Z,7.02
2018-11-04T22:06:28.834Z,7.09
2018-11-04T22:08:56.820Z,7.10
2018-11-04T22:11:24.856Z,7.09
2018-11-04T22:13:53.100Z,7.01
2018-11-04T22:16:21.001Z,7.03
2018-11-04T22:18:48.934Z,6.92
2018-11-04T22:21:17.122Z,6.96
2018-11-04T22:23:45.140Z,6.92
2018-11-04T22:26:13.105Z,7.00
2018-11-04T22:28:41.160Z,6.93
2018-11-04T22:31:09.141Z,6.93
2018-11-04T22:33:37.139Z,6.96
2018-11-04T22:36:05.451Z,6.96
2018-11-04T22:38:33.384Z,6.97
2018-11-04T22:41:01.414Z,6.96
2018-11-04T22:43:29.401Z,6.83
2018-11-04T22:45:57.397Z,6.84
2018-11-04T22:48:25.356Z,6.86
2018-11-04T22:50:53.409Z,6.88
2018-11-04T22:53:21.402Z,6.68
2018-11-04T22:55:49.429Z,6.79
2018-11-04T22:58:17.478Z,6.80
2018-11-04T23:00:46.456Z,6.85
2018-11-04T23:03:14.502Z,6.90
2018-11-04T23:05:42.562Z,6.80
2018-11-04T23:08:10.710Z,6.80
2018-11-04T23:10:38.661Z,6.81
2018-11-04T23:13:06.719Z,6.91
2018-11-04T23:15:34.696Z,6.98
2018-11-04T23:18:02.837Z,7.04
2018-11-04T23:20:30.817Z,6.67
2018-11-04T23:22:58.857Z,6.88
2018-11-04T23:25:26.873Z,6.90
2018-11-04T23:27:54.896Z,7.01
2018-11-04T23:30:22.980Z,7.10
2018-11-04T23:32:51.021Z,7.07
2018-11-04T23:35:18.982Z,6.83
2018-11-04T23:37:47.108Z,6.93
2018-11-04T23:40:15.047Z,6.91
2018-11-04T23:42:43.074Z,6.93
2018-11-04T23:45:12.624Z,6.91
2018-11-04T23:47:40.608Z,6.84
2018-11-04T23:50:11.160Z,6.84
2018-11-04T23:52:39.100Z,6.86
2018-11-04T23:55:08.046Z,6.76
2018-11-04T23:57:35.949Z,6.75
